Accueil
METAR-TAF:

METAR-TAF

Aéroports :

Bermudes, Bermudes

Aéroport international L.F. Wade

latitude: 32-22N, longitude: 064-41W, altitude: 6 m

Observation

Le bulletin a été fait il y a 23 minutes, à 15:55 UTC
Vent 9 kt de nord-ouest
Température 22°C
Humidité 73%
Pression 1026 hPa
Visibilité 10 km ou plus
Quelques nuages à une hauteur de 1500 ft

METAR: TXKF 241555Z 32009KT 9999 FEW015 22/17 Q1026

Heure: 12:18 (16:18 UTC)

Prévision

Le bulletin a été fait il y a 4 heures et 47 minutes, à 11:31 UTC
Prévision valable du 24 à 12 UTC au 25 à 12 UTC
Vent 2 kt de ouest
Visibilité 10 km ou plus
Quelques nuages à une hauteur de 1200 ft
Nuages épars à une hauteur de 4000 ft
Evoluant progressivement
du 24 à 14 UTC au 24 à 16 UTC
Vent 12 kt de nord-ouest

TAF: TXKF 241131Z 2412/2512 27002KT 9999 FEW012 SCT040 BECMG 2414/2416 31012KT

Observations et prévisions météorologiques de plus de 4000 aéroports (messages METAR et TAF).

Les stations disponibles sont représentées par des disques jaunes et rouges sur la carte.

Passer la souris dessus pour voir le nom de la station.

Cliquer dessus pour voir les observations et prévisions météorologiques.

Pour changer de carte: cliquez sur les boutons verts avec une croix noire pour zoomer, sur le bouton vert avec un tiret pour effectuer un zoom arrière, ou sur les flèches vertes pour les cartes adjacentes.


METAR-TAF: